sensor_id;sensor_type;location;lat;lon;timestamp;pressure;altitude;pressure_sealevel;temperature;humidity
77106;BME280;66057;54.718;18.426;2023-02-28T00:00:34;103096.28;;;-2.46;88.12
77106;BME280;66057;54.718;18.426;2023-02-28T00:03:14;103092.44;;;-2.49;88.52
77106;BME280;66057;54.718;18.426;2023-02-28T00:05:40;103100.41;;;-2.46;87.64
77106;BME280;66057;54.718;18.426;2023-02-28T00:08:07;103104.84;;;-2.51;88.08
77106;BME280;66057;54.718;18.426;2023-02-28T00:10:33;103100.31;;;-2.53;88.57
77106;BME280;66057;54.718;18.426;2023-02-28T00:13:05;103099.53;;;-2.59;88.65
77106;BME280;66057;54.718;18.426;2023-02-28T00:15:34;103098.94;;;-2.64;88.95
77106;BME280;66057;54.718;18.426;2023-02-28T00:18:05;103094.31;;;-2.74;89.93
77106;BME280;66057;54.718;18.426;2023-02-28T00:20:33;103095.81;;;-2.81;89.59
77106;BME280;66057;54.718;18.426;2023-02-28T00:23:00;103100.97;;;-2.87;90.44
77106;BME280;66057;54.718;18.426;2023-02-28T00:25:26;103102.78;;;-2.86;90.86
77106;BME280;66057;54.718;18.426;2023-02-28T00:27:52;103098.88;;;-2.84;90.18
77106;BME280;66057;54.718;18.426;2023-02-28T00:30:20;103104.66;;;-2.78;89.71
77106;BME280;66057;54.718;18.426;2023-02-28T00:32:47;103093.63;;;-2.85;89.42
77106;BME280;66057;54.718;18.426;2023-02-28T00:35:12;103091.81;;;-2.86;89.64
77106;BME280;66057;54.718;18.426;2023-02-28T00:37:39;103072.00;;;-3.03;90.28
77106;BME280;66057;54.718;18.426;2023-02-28T00:40:10;103098.25;;;-2.88;91.05
77106;BME280;66057;54.718;18.426;2023-02-28T00:42:38;103087.78;;;-2.91;90.70
77106;BME280;66057;54.718;18.426;2023-02-28T00:45:04;103092.50;;;-2.87;90.87
77106;BME280;66057;54.718;18.426;2023-02-28T00:47:31;103086.38;;;-2.89;91.03
77106;BME280;66057;54.718;18.426;2023-02-28T00:49:57;103072.78;;;-2.97;90.92
77106;BME280;66057;54.718;18.426;2023-02-28T00:52:26;103083.25;;;-2.94;90.06
77106;BME280;66057;54.718;18.426;2023-02-28T00:54:52;103080.94;;;-2.80;90.39
77106;BME280;66057;54.718;18.426;2023-02-28T00:57:18;103092.09;;;-2.78;89.18
77106;BME280;66057;54.718;18.426;2023-02-28T00:59:44;103077.72;;;-2.91;89.82
77106;BME280;66057;54.718;18.426;2023-02-28T01:02:11;103074.41;;;-2.97;90.51
77106;BME280;66057;54.718;18.426;2023-02-28T01:04:40;103081.75;;;-2.99;90.27
77106;BME280;66057;54.718;18.426;2023-02-28T01:07:08;103094.94;;;-2.94;90.73
77106;BME280;66057;54.718;18.426;2023-02-28T01:09:38;103073.31;;;-3.12;91.72
77106;BME280;66057;54.718;18.426;2023-02-28T01:12:04;103089.19;;;-3.06;92.40
77106;BME280;66057;54.718;18.426;2023-02-28T01:14:30;103092.22;;;-3.09;91.72
77106;BME280;66057;54.718;18.426;2023-02-28T01:16:58;103105.41;;;-3.04;92.00
77106;BME280;66057;54.718;18.426;2023-02-28T01:19:23;103086.88;;;-3.04;91.94
77106;BME280;66057;54.718;18.426;2023-02-28T01:21:50;103096.63;;;-3.00;91.50
77106;BME280;66057;54.718;18.426;2023-02-28T01:24:15;103097.53;;;-3.00;91.34
77106;BME280;66057;54.718;18.426;2023-02-28T01:26:42;103109.59;;;-3.10;90.97
77106;BME280;66057;54.718;18.426;2023-02-28T01:29:08;103111.72;;;-3.13;91.26
77106;BME280;66057;54.718;18.426;2023-02-28T01:31:34;103106.56;;;-3.20;91.89
77106;BME280;66057;54.718;18.426;2023-02-28T01:34:00;103103.59;;;-3.18;91.56
77106;BME280;66057;54.718;18.426;2023-02-28T01:36:26;103094.94;;;-3.07;91.11
77106;BME280;66057;54.718;18.426;2023-02-28T01:38:58;103105.59;;;-2.90;90.57
77106;BME280;66057;54.718;18.426;2023-02-28T01:41:29;103104.69;;;-2.90;90.79
77106;BME280;66057;54.718;18.426;2023-02-28T01:44:53;103084.38;;;-3.04;90.46
77106;BME280;66057;54.718;18.426;2023-02-28T01:46:52;103098.75;;;-2.91;90.33
77106;BME280;66057;54.718;18.426;2023-02-28T01:49:19;103100.66;;;-2.95;90.58
77106;BME280;66057;54.718;18.426;2023-02-28T01:51:48;103097.13;;;-2.90;89.93
77106;BME280;66057;54.718;18.426;2023-02-28T01:56:55;103094.41;;;-2.92;89.08
77106;BME280;66057;54.718;18.426;2023-02-28T02:02:07;103094.63;;;-2.90;88.78
77106;BME280;66057;54.718;18.426;2023-02-28T02:04:50;103101.88;;;-2.99;89.37
77106;BME280;66057;54.718;18.426;2023-02-28T02:07:17;103091.31;;;-3.09;89.41
77106;BME280;66057;54.718;18.426;2023-02-28T02:09:46;103099.97;;;-3.07;89.12
77106;BME280;66057;54.718;18.426;2023-02-28T02:15:18;103073.16;;;-3.44;91.04
77106;BME280;66057;54.718;18.426;2023-02-28T02:17:52;103099.50;;;-3.35;90.87
77106;BME280;66057;54.718;18.426;2023-02-28T02:26:34;103096.53;;;-3.33;90.89
77106;BME280;66057;54.718;18.426;2023-02-28T02:32:02;103093.19;;;-3.39;90.99
77106;BME280;66057;54.718;18.426;2023-02-28T02:35:10;103078.28;;;-3.50;91.68
77106;BME280;66057;54.718;18.426;2023-02-28T02:37:39;103100.13;;;-3.43;91.18
77106;BME280;66057;54.718;18.426;2023-02-28T02:40:22;103106.34;;;-3.47;91.89
77106;BME280;66057;54.718;18.426;2023-02-28T02:42:55;103097.69;;;-3.49;91.81
77106;BME280;66057;54.718;18.426;2023-02-28T02:45:32;103090.22;;;-3.55;92.48
77106;BME280;66057;54.718;18.426;2023-02-28T02:48:06;103096.88;;;-3.55;92.34
77106;BME280;66057;54.718;18.426;2023-02-28T02:50:39;103108.56;;;-3.56;92.97
77106;BME280;66057;54.718;18.426;2023-02-28T02:53:09;103091.41;;;-3.71;92.36
77106;BME280;66057;54.718;18.426;2023-02-28T02:55:40;103094.94;;;-3.63;92.01
77106;BME280;66057;54.718;18.426;2023-02-28T02:58:11;103109.25;;;-3.57;92.31
77106;BME280;66057;54.718;18.426;2023-02-28T03:00:46;103110.44;;;-3.60;92.86
77106;BME280;66057;54.718;18.426;2023-02-28T03:03:15;103108.13;;;-3.59;91.68
77106;BME280;66057;54.718;18.426;2023-02-28T03:05:53;103105.00;;;-3.63;92.13
77106;BME280;66057;54.718;18.426;2023-02-28T03:08:18;103108.63;;;-3.61;92.31
77106;BME280;66057;54.718;18.426;2023-02-28T03:10:48;103112.16;;;-3.54;91.97
77106;BME280;66057;54.718;18.426;2023-02-28T03:24:24;103099.94;;;-3.32;91.19
77106;BME280;66057;54.718;18.426;2023-02-28T03:26:58;103108.09;;;-3.28;90.52
77106;BME280;66057;54.718;18.426;2023-02-28T03:29:28;103105.97;;;-3.25;90.50
77106;BME280;66057;54.718;18.426;2023-02-28T03:32:25;103108.41;;;-3.19;89.79
77106;BME280;66057;54.718;18.426;2023-02-28T03:35:06;103101.75;;;-3.19;89.94
77106;BME280;66057;54.718;18.426;2023-02-28T03:37:38;103098.72;;;-3.16;89.80
77106;BME280;66057;54.718;18.426;2023-02-28T03:40:11;103105.59;;;-3.15;90.29
77106;BME280;66057;54.718;18.426;2023-02-28T03:42:42;103099.25;;;-3.19;90.18
77106;BME280;66057;54.718;18.426;2023-02-28T03:45:21;103098.53;;;-3.30;90.72
77106;BME280;66057;54.718;18.426;2023-02-28T03:48:03;103097.91;;;-3.47;92.13
77106;BME280;66057;54.718;18.426;2023-02-28T03:50:39;103085.03;;;-3.56;91.91
77106;BME280;66057;54.718;18.426;2023-02-28T03:53:33;103102.94;;;-3.47;91.75
77106;BME280;66057;54.718;18.426;2023-02-28T03:56:13;103083.00;;;-3.59;91.89
77106;BME280;66057;54.718;18.426;2023-02-28T03:58:55;103103.31;;;-3.57;92.02
77106;BME280;66057;54.718;18.426;2023-02-28T04:01:27;103092.75;;;-3.55;92.57
77106;BME280;66057;54.718;18.426;2023-02-28T04:03:59;103098.81;;;-3.47;92.19
77106;BME280;66057;54.718;18.426;2023-02-28T04:06:26;103086.94;;;-3.48;91.55
77106;BME280;66057;54.718;18.426;2023-02-28T04:08:53;103101.94;;;-3.42;91.01
77106;BME280;66057;54.718;18.426;2023-02-28T04:14:04;103103.31;;;-3.44;91.50
77106;BME280;66057;54.718;18.426;2023-02-28T04:16:35;103101.03;;;-3.43;91.53
77106;BME280;66057;54.718;18.426;2023-02-28T04:19:03;103077.88;;;-3.53;91.12
77106;BME280;66057;54.718;18.426;2023-02-28T04:21:32;103063.19;;;-3.50;91.46
77106;BME280;66057;54.718;18.426;2023-02-28T04:23:58;103099.94;;;-3.32;91.33
77106;BME280;66057;54.718;18.426;2023-02-28T04:26:36;103096.53;;;-3.33;90.46
77106;BME280;66057;54.718;18.426;2023-02-28T04:29:04;103090.97;;;-3.30;90.39
77106;BME280;66057;54.718;18.426;2023-02-28T04:31:30;103088.88;;;-3.27;90.33
77106;BME280;66057;54.718;18.426;2023-02-28T04:33:57;103087.16;;;-3.34;90.61
77106;BME280;66057;54.718;18.426;2023-02-28T04:36:23;103096.00;;;-3.30;90.64
77106;BME280;66057;54.718;18.426;2023-02-28T04:38:49;103075.88;;;-3.43;90.82
77106;BME280;66057;54.718;18.426;2023-02-28T04:41:16;103086.63;;;-3.44;91.28
77106;BME280;66057;54.718;18.426;2023-02-28T04:43:45;103091.19;;;-3.41;90.38
77106;BME280;66057;54.718;18.426;2023-02-28T04:46:14;103094.19;;;-3.44;91.10
77106;BME280;66057;54.718;18.426;2023-02-28T04:48:41;103091.75;;;-3.49;91.26
77106;BME280;66057;54.718;18.426;2023-02-28T04:51:13;103076.56;;;-3.57;90.10
77106;BME280;66057;54.718;18.426;2023-02-28T04:53:41;103090.66;;;-3.52;90.74
77106;BME280;66057;54.718;18.426;2023-02-28T04:56:13;103076.50;;;-3.51;90.62
77106;BME280;66057;54.718;18.426;2023-02-28T04:58:49;103076.28;;;-3.53;90.73
77106;BME280;66057;54.718;18.426;2023-02-28T05:01:27;103081.69;;;-3.49;90.41
77106;BME280;66057;54.718;18.426;2023-02-28T05:04:00;103081.00;;;-3.48;90.95
77106;BME280;66057;54.718;18.426;2023-02-28T05:06:30;103067.44;;;-3.56;90.31
77106;BME280;66057;54.718;18.426;2023-02-28T05:08:57;103080.59;;;-3.52;90.60
77106;BME280;66057;54.718;18.426;2023-02-28T05:11:26;103081.44;;;-3.45;90.64
77106;BME280;66057;54.718;18.426;2023-02-28T05:13:55;103065.53;;;-3.52;91.26
77106;BME280;66057;54.718;18.426;2023-02-28T05:16:20;103056.94;;;-3.59;91.21
77106;BME280;66057;54.718;18.426;2023-02-28T05:18:47;103067.34;;;-3.50;91.99
77106;BME280;66057;54.718;18.426;2023-02-28T05:21:32;103064.22;;;-3.42;91.15
77106;BME280;66057;54.718;18.426;2023-02-28T05:24:02;103057.06;;;-3.39;90.46
77106;BME280;66057;54.718;18.426;2023-02-28T05:26:35;103056.69;;;-3.42;90.43
77106;BME280;66057;54.718;18.426;2023-02-28T05:29:05;103058.41;;;-3.36;89.50
77106;BME280;66057;54.718;18.426;2023-02-28T05:31:32;103070.47;;;-3.33;89.98
77106;BME280;66057;54.718;18.426;2023-02-28T05:33:59;103059.91;;;-3.31;89.26
77106;BME280;66057;54.718;18.426;2023-02-28T05:36:25;103059.03;;;-3.31;89.63
77106;BME280;66057;54.718;18.426;2023-02-28T05:38:51;103035.56;;;-3.37;89.67
77106;BME280;66057;54.718;18.426;2023-02-28T05:41:18;103057.38;;;-3.31;90.29
77106;BME280;66057;54.718;18.426;2023-02-28T05:43:47;103056.09;;;-3.34;89.69
77106;BME280;66057;54.718;18.426;2023-02-28T05:46:13;103040.91;;;-3.41;89.68
77106;BME280;66057;54.718;18.426;2023-02-28T05:48:41;103059.41;;;-3.28;90.06
77106;BME280;66057;54.718;18.426;2023-02-28T05:51:08;103041.41;;;-3.31;90.10
77106;BME280;66057;54.718;18.426;2023-02-28T05:53:34;103040.13;;;-3.22;89.19
77106;BME280;66057;54.718;18.426;2023-02-28T05:56:01;103054.28;;;-3.10;89.84
77106;BME280;66057;54.718;18.426;2023-02-28T05:58:27;103043.31;;;-3.11;88.10
77106;BME280;66057;54.718;18.426;2023-02-28T06:01:18;103057.91;;;-2.95;88.74
77106;BME280;66057;54.718;18.426;2023-02-28T06:03:44;103057.69;;;-2.84;87.95
77106;BME280;66057;54.718;18.426;2023-02-28T06:06:10;103055.56;;;-2.81;87.81
77106;BME280;66057;54.718;18.426;2023-02-28T06:08:36;103079.22;;;-2.74;87.79
77106;BME280;66057;54.718;18.426;2023-02-28T06:11:05;103066.22;;;-2.64;87.68
77106;BME280;66057;54.718;18.426;2023-02-28T06:13:35;103066.72;;;-2.67;87.70
77106;BME280;66057;54.718;18.426;2023-02-28T06:16:01;103072.56;;;-2.60;87.49
77106;BME280;66057;54.718;18.426;2023-02-28T06:18:28;103071.94;;;-2.52;87.43
77106;BME280;66057;54.718;18.426;2023-02-28T06:20:54;103073.22;;;-2.49;86.84
77106;BME280;66057;54.718;18.426;2023-02-28T06:23:23;103081.34;;;-2.44;86.80
77106;BME280;66057;54.718;18.426;2023-02-28T06:25:49;103080.88;;;-2.42;87.26
77106;BME280;66057;54.718;18.426;2023-02-28T06:28:20;103080.34;;;-2.39;86.09
77106;BME280;66057;54.718;18.426;2023-02-28T06:30:52;103078.81;;;-2.32;87.15
77106;BME280;66057;54.718;18.426;2023-02-28T06:33:18;103070.75;;;-2.29;87.14
77106;BME280;66057;54.718;18.426;2023-02-28T06:35:50;103060.34;;;-2.25;86.35
77106;BME280;66057;54.718;18.426;2023-02-28T06:38:16;103073.03;;;-2.18;86.74
77106;BME280;66057;54.718;18.426;2023-02-28T06:40:43;103063.75;;;-2.12;85.81
77106;BME280;66057;54.718;18.426;2023-02-28T06:43:10;103063.44;;;-2.08;86.76
77106;BME280;66057;54.718;18.426;2023-02-28T06:45:43;103062.97;;;-1.98;85.59
77106;BME280;66057;54.718;18.426;2023-02-28T06:48:17;103049.09;;;-2.02;85.48
77106;BME280;66057;54.718;18.426;2023-02-28T06:50:48;103070.47;;;-1.86;86.29
77106;BME280;66057;54.718;18.426;2023-02-28T06:53:15;103043.66;;;-1.85;85.87
77106;BME280;66057;54.718;18.426;2023-02-28T06:55:41;103049.94;;;-1.69;85.25
77106;BME280;66057;54.718;18.426;2023-02-28T06:58:07;103045.31;;;-1.59;84.97
77106;BME280;66057;54.718;18.426;2023-02-28T07:00:43;103029.28;;;-1.59;85.13
77106;BME280;66057;54.718;18.426;2023-02-28T07:03:11;103041.59;;;-1.48;85.79
77106;BME280;66057;54.718;18.426;2023-02-28T07:05:38;103034.78;;;-1.49;85.02
77106;BME280;66057;54.718;18.426;2023-02-28T07:08:05;103055.75;;;-1.36;85.14
77106;BME280;66057;54.718;18.426;2023-02-28T07:10:36;103042.28;;;-1.29;85.00
77106;BME280;66057;54.718;18.426;2023-02-28T07:13:04;103041.78;;;-1.20;84.10
77106;BME280;66057;54.718;18.426;2023-02-28T07:15:30;103044.22;;;-1.07;84.27
77106;BME280;66057;54.718;18.426;2023-02-28T07:17:59;103045.19;;;-0.93;82.49
77106;BME280;66057;54.718;18.426;2023-02-28T07:20:25;103047.38;;;-0.89;81.78
77106;BME280;66057;54.718;18.426;2023-02-28T07:22:51;103038.75;;;-0.83;81.48
77106;BME280;66057;54.718;18.426;2023-02-28T07:25:29;103037.69;;;-0.71;80.04
77106;BME280;66057;54.718;18.426;2023-02-28T07:27:56;103030.13;;;-0.71;79.41
77106;BME280;66057;54.718;18.426;2023-02-28T07:30:24;103049.31;;;-0.59;80.28
77106;BME280;66057;54.718;18.426;2023-02-28T07:32:50;103059.06;;;-0.55;79.67
77106;BME280;66057;54.718;18.426;2023-02-28T07:35:16;103048.25;;;-0.54;78.76
77106;BME280;66057;54.718;18.426;2023-02-28T07:37:43;103057.78;;;-0.52;78.87
77106;BME280;66057;54.718;18.426;2023-02-28T07:40:10;103056.56;;;-0.41;79.51
77106;BME280;66057;54.718;18.426;2023-02-28T07:42:40;103028.78;;;-0.48;78.91
77106;BME280;66057;54.718;18.426;2023-02-28T07:45:07;103051.22;;;-0.30;78.26
77106;BME280;66057;54.718;18.426;2023-02-28T07:47:38;103052.63;;;-0.32;78.57
77106;BME280;66057;54.718;18.426;2023-02-28T07:50:05;103043.63;;;-0.30;78.31
77106;BME280;66057;54.718;18.426;2023-02-28T07:52:31;103042.19;;;-0.14;77.38
77106;BME280;66057;54.718;18.426;2023-02-28T07:54:57;103053.41;;;-0.05;77.44
77106;BME280;66057;54.718;18.426;2023-02-28T07:57:25;103052.00;;;0.05;77.19
77106;BME280;66057;54.718;18.426;2023-02-28T07:59:51;103035.53;;;0.01;76.79
77106;BME280;66057;54.718;18.426;2023-02-28T08:02:18;103059.03;;;0.14;75.66
77106;BME280;66057;54.718;18.426;2023-02-28T08:04:44;103062.84;;;0.18;75.96
77106;BME280;66057;54.718;18.426;2023-02-28T08:07:12;103063.19;;;0.21;75.65
77106;BME280;66057;54.718;18.426;2023-02-28T08:09:42;103064.47;;;0.31;75.15
77106;BME280;66057;54.718;18.426;2023-02-28T08:12:11;103056.31;;;0.34;75.57
77106;BME280;66057;54.718;18.426;2023-02-28T08:14:38;103050.72;;;0.36;74.90
77106;BME280;66057;54.718;18.426;2023-02-28T08:17:06;103055.97;;;0.45;75.26
77106;BME280;66057;54.718;18.426;2023-02-28T08:19:32;103059.94;;;0.50;74.33
77106;BME280;66057;54.718;18.426;2023-02-28T08:21:58;103042.06;;;0.41;73.79
77106;BME280;66057;54.718;18.426;2023-02-28T08:24:24;103057.22;;;0.56;73.51
77106;BME280;66057;54.718;18.426;2023-02-28T08:26:50;103056.69;;;0.51;73.29
77106;BME280;66057;54.718;18.426;2023-02-28T08:29:19;103061.19;;;0.61;73.69
77106;BME280;66057;54.718;18.426;2023-02-28T08:31:45;103067.84;;;0.67;73.52
77106;BME280;66057;54.718;18.426;2023-02-28T08:34:15;103053.06;;;0.70;74.26
77106;BME280;66057;54.718;18.426;2023-02-28T08:36:43;103063.69;;;0.89;74.44
77106;BME280;66057;54.718;18.426;2023-02-28T08:39:19;103047.41;;;0.87;72.96
77106;BME280;66057;54.718;18.426;2023-02-28T08:41:53;103076.50;;;0.98;73.66
77106;BME280;66057;54.718;18.426;2023-02-28T08:44:19;103068.56;;;0.95;73.40
77106;BME280;66057;54.718;18.426;2023-02-28T08:46:50;103059.50;;;0.97;73.67
77106;BME280;66057;54.718;18.426;2023-02-28T08:49:21;103076.50;;;1.05;73.55
77106;BME280;66057;54.718;18.426;2023-02-28T08:51:51;103074.69;;;1.04;74.57
77106;BME280;66057;54.718;18.426;2023-02-28T08:54:17;103055.84;;;1.02;74.17
77106;BME280;66057;54.718;18.426;2023-02-28T08:56:46;103068.66;;;1.24;74.30
77106;BME280;66057;54.718;18.426;2023-02-28T08:59:14;103057.41;;;1.29;74.19
77106;BME280;66057;54.718;18.426;2023-02-28T09:01:41;103069.47;;;1.39;73.95
77106;BME280;66057;54.718;18.426;2023-02-28T09:04:07;103066.94;;;1.46;74.56
77106;BME280;66057;54.718;18.426;2023-02-28T09:06:37;103061.28;;;1.56;74.20
77106;BME280;66057;54.718;18.426;2023-02-28T09:09:06;103061.25;;;1.63;73.82
77106;BME280;66057;54.718;18.426;2023-02-28T09:11:34;103063.72;;;1.70;73.55
77106;BME280;66057;54.718;18.426;2023-02-28T09:14:00;103062.91;;;1.85;74.53
77106;BME280;66057;54.718;18.426;2023-02-28T09:16:26;103056.44;;;1.80;73.90
77106;BME280;66057;54.718;18.426;2023-02-28T09:18:53;103054.53;;;1.93;73.32
77106;BME280;66057;54.718;18.426;2023-02-28T09:21:19;103065.28;;;2.06;73.98
77106;BME280;66057;54.718;18.426;2023-02-28T09:23:47;103051.28;;;2.17;72.85
77106;BME280;66057;54.718;18.426;2023-02-28T09:26:18;103054.22;;;2.13;72.97
77106;BME280;66057;54.718;18.426;2023-02-28T09:28:45;103052.19;;;2.17;73.62
77106;BME280;66057;54.718;18.426;2023-02-28T09:31:17;103046.16;;;2.24;73.00
77106;BME280;66057;54.718;18.426;2023-02-28T09:33:49;103041.41;;;2.27;72.28
77106;BME280;66057;54.718;18.426;2023-02-28T09:36:16;103046.38;;;2.41;72.23
77106;BME280;66057;54.718;18.426;2023-02-28T09:38:42;103053.44;;;2.44;72.04
77106;BME280;66057;54.718;18.426;2023-02-28T09:41:39;103044.19;;;2.44;71.75
77106;BME280;66057;54.718;18.426;2023-02-28T09:46:49;103041.16;;;2.55;71.21
77106;BME280;66057;54.718;18.426;2023-02-28T09:49:20;103046.19;;;2.62;70.90
77106;BME280;66057;54.718;18.426;2023-02-28T09:52:03;103036.34;;;2.66;70.62
77106;BME280;66057;54.718;18.426;2023-02-28T09:54:39;103032.69;;;2.86;70.57
77106;BME280;66057;54.718;18.426;2023-02-28T10:00:13;103035.25;;;2.86;68.14
77106;BME280;66057;54.718;18.426;2023-02-28T10:05:29;103017.47;;;3.02;67.13
77106;BME280;66057;54.718;18.426;2023-02-28T10:10:45;103035.81;;;3.15;66.18
77106;BME280;66057;54.718;18.426;2023-02-28T10:16:08;103045.16;;;3.23;65.21
77106;BME280;66057;54.718;18.426;2023-02-28T10:18:48;103031.41;;;3.21;64.95
77106;BME280;66057;54.718;18.426;2023-02-28T10:21:21;103034.66;;;3.20;64.30
77106;BME280;66057;54.718;18.426;2023-02-28T10:23:52;103029.22;;;3.33;64.14
77106;BME280;66057;54.718;18.426;2023-02-28T10:26:26;103035.69;;;3.38;63.83
77106;BME280;66057;54.718;18.426;2023-02-28T10:28:54;103038.66;;;3.34;63.09
77106;BME280;66057;54.718;18.426;2023-02-28T10:31:20;103042.19;;;3.43;62.81
77106;BME280;66057;54.718;18.426;2023-02-28T10:33:47;103045.84;;;3.54;62.62
77106;BME280;66057;54.718;18.426;2023-02-28T10:36:19;103044.94;;;3.69;61.79
77106;BME280;66057;54.718;18.426;2023-02-28T10:38:47;103018.72;;;3.70;61.45
77106;BME280;66057;54.718;18.426;2023-02-28T10:41:28;103037.22;;;3.84;61.17
77106;BME280;66057;54.718;18.426;2023-02-28T10:44:20;103025.63;;;3.95;59.25
77106;BME280;66057;54.718;18.426;2023-02-28T10:46:48;103040.06;;;3.79;60.28
77106;BME280;66057;54.718;18.426;2023-02-28T10:49:23;103031.88;;;3.90;58.83
77106;BME280;66057;54.718;18.426;2023-02-28T10:51:56;103028.38;;;3.81;59.00
77106;BME280;66057;54.718;18.426;2023-02-28T10:54:30;103019.78;;;3.96;58.80
77106;BME280;66057;54.718;18.426;2023-02-28T10:57:25;103006.91;;;3.94;59.75
77106;BME280;66057;54.718;18.426;2023-02-28T10:59:53;103025.41;;;4.09;58.55
77106;BME280;66057;54.718;18.426;2023-02-28T11:02:38;103005.16;;;4.02;58.29
77106;BME280;66057;54.718;18.426;2023-02-28T11:07:55;103018.88;;;4.20;58.58
77106;BME280;66057;54.718;18.426;2023-02-28T11:10:25;103011.25;;;4.28;58.32
77106;BME280;66057;54.718;18.426;2023-02-28T11:12:56;103008.81;;;4.54;58.86
77106;BME280;66057;54.718;18.426;2023-02-28T11:15:30;102998.75;;;4.47;57.16
77106;BME280;66057;54.718;18.426;2023-02-28T11:20:48;102991.25;;;4.40;57.54
77106;BME280;66057;54.718;18.426;2023-02-28T11:23:17;102992.44;;;4.44;58.50
77106;BME280;66057;54.718;18.426;2023-02-28T11:25:51;102994.13;;;4.52;59.13
77106;BME280;66057;54.718;18.426;2023-02-28T11:28:35;102971.53;;;4.72;59.33
77106;BME280;66057;54.718;18.426;2023-02-28T11:33:43;102965.81;;;4.57;59.45
77106;BME280;66057;54.718;18.426;2023-02-28T11:36:23;102978.28;;;4.80;59.70
77106;BME280;66057;54.718;18.426;2023-02-28T11:38:58;102963.78;;;4.96;59.37
77106;BME280;66057;54.718;18.426;2023-02-28T11:41:52;102962.56;;;5.10;59.54
77106;BME280;66057;54.718;18.426;2023-02-28T11:46:58;102943.00;;;5.62;59.36
77106;BME280;66057;54.718;18.426;2023-02-28T11:52:34;102935.25;;;5.96;57.72
77106;BME280;66057;54.718;18.426;2023-02-28T11:55:17;102936.69;;;6.11;57.50
77106;BME280;66057;54.718;18.426;2023-02-28T12:06:21;102935.41;;;6.52;57.86
77106;BME280;66057;54.718;18.426;2023-02-28T12:11:54;102911.63;;;6.99;56.25
77106;BME280;66057;54.718;18.426;2023-02-28T12:20:15;102922.78;;;7.29;55.34
77106;BME280;66057;54.718;18.426;2023-02-28T12:23:19;102928.03;;;8.08;53.91
77106;BME280;66057;54.718;18.426;2023-02-28T12:28:26;102915.84;;;8.06;53.02
77106;BME280;66057;54.718;18.426;2023-02-28T12:31:06;102937.50;;;8.09;53.41
77106;BME280;66057;54.718;18.426;2023-02-28T12:33:40;102920.53;;;8.50;52.97
77106;BME280;66057;54.718;18.426;2023-02-28T12:36:11;102919.97;;;8.95;51.65
77106;BME280;66057;54.718;18.426;2023-02-28T12:38:42;102918.19;;;8.73;51.90
77106;BME280;66057;54.718;18.426;2023-02-28T12:41:14;102929.00;;;8.39;53.27
77106;BME280;66057;54.718;18.426;2023-02-28T12:43:55;102917.44;;;8.74;52.45
77106;BME280;66057;54.718;18.426;2023-02-28T12:46:34;102946.75;;;8.27;52.84
77106;BME280;66057;54.718;18.426;2023-02-28T12:49:34;102921.41;;;8.81;52.26
77106;BME280;66057;54.718;18.426;2023-02-28T12:52:07;102922.31;;;8.51;53.34
77106;BME280;66057;54.718;18.426;2023-02-28T12:57:26;102903.34;;;8.49;54.44
77106;BME280;66057;54.718;18.426;2023-02-28T12:59:57;102902.94;;;8.85;53.78
77106;BME280;66057;54.718;18.426;2023-02-28T13:07:58;102881.13;;;8.90;53.57
77106;BME280;66057;54.718;18.426;2023-02-28T13:10:47;102877.81;;;8.20;53.73
77106;BME280;66057;54.718;18.426;2023-02-28T13:13:19;102883.28;;;7.84;55.08
77106;BME280;66057;54.718;18.426;2023-02-28T13:16:04;102873.72;;;8.22;55.15
77106;BME280;66057;54.718;18.426;2023-02-28T13:18:41;102866.19;;;8.54;53.29
77106;BME280;66057;54.718;18.426;2023-02-28T13:21:22;102882.28;;;7.93;54.17
77106;BME280;66057;54.718;18.426;2023-02-28T13:29:21;102889.16;;;7.73;56.38
77106;BME280;66057;54.718;18.426;2023-02-28T13:34:32;102863.34;;;8.01;55.44
77106;BME280;66057;54.718;18.426;2023-02-28T13:39:48;102844.38;;;7.88;55.05
77106;BME280;66057;54.718;18.426;2023-02-28T13:47:41;102859.00;;;8.00;55.83
77106;BME280;66057;54.718;18.426;2023-02-28T13:56:17;102834.75;;;7.96;55.72
77106;BME280;66057;54.718;18.426;2023-02-28T14:04:14;102860.72;;;7.70;56.79
77106;BME280;66057;54.718;18.426;2023-02-28T14:06:53;102842.34;;;8.05;56.31
77106;BME280;66057;54.718;18.426;2023-02-28T14:09:30;102851.84;;;8.56;55.39
77106;BME280;66057;54.718;18.426;2023-02-28T14:18:29;102856.94;;;8.26;56.42
77106;BME280;66057;54.718;18.426;2023-02-28T14:21:24;102849.78;;;8.22;56.33
77106;BME280;66057;54.718;18.426;2023-02-28T14:30:11;102847.03;;;7.70;57.56
77106;BME280;66057;54.718;18.426;2023-02-28T14:36:04;102840.16;;;7.99;57.43
77106;BME280;66057;54.718;18.426;2023-02-28T14:38:46;102847.25;;;7.63;58.46
77106;BME280;66057;54.718;18.426;2023-02-28T14:41:21;102842.16;;;7.73;58.41
77106;BME280;66057;54.718;18.426;2023-02-28T14:43:53;102830.94;;;8.21;57.32
77106;BME280;66057;54.718;18.426;2023-02-28T14:46:19;102799.19;;;7.89;57.50
77106;BME280;66057;54.718;18.426;2023-02-28T14:48:47;102819.78;;;7.80;58.59
77106;BME280;66057;54.718;18.426;2023-02-28T14:51:18;102819.03;;;8.12;57.55
77106;BME280;66057;54.718;18.426;2023-02-28T14:53:48;102809.28;;;8.28;58.17
77106;BME280;66057;54.718;18.426;2023-02-28T14:56:24;102817.25;;;8.41;56.67
77106;BME280;66057;54.718;18.426;2023-02-28T14:58:57;102808.53;;;7.99;58.40
77106;BME280;66057;54.718;18.426;2023-02-28T15:01:24;102821.19;;;7.97;58.29
77106;BME280;66057;54.718;18.426;2023-02-28T15:04:02;102807.50;;;7.76;59.39
77106;BME280;66057;54.718;18.426;2023-02-28T15:06:29;102814.28;;;7.66;60.30
77106;BME280;66057;54.718;18.426;2023-02-28T15:09:16;102814.75;;;7.52;61.27
77106;BME280;66057;54.718;18.426;2023-02-28T15:11:46;102810.88;;;7.36;60.95
77106;BME280;66057;54.718;18.426;2023-02-28T15:14:17;102808.34;;;7.08;62.12
77106;BME280;66057;54.718;18.426;2023-02-28T15:16:46;102819.91;;;7.23;61.95